Time;durP1;ratioP1;P1;durP2;ratioP2;P2;SDS_P1;SDS_P2;PMS_P1;PMS_P2;Temp;Humidity;BMP_temperature;BMP_pressure;BME280_temperature;BME280_humidity;BME280_pressure;Samples;Min_cycle;Max_cycle;Signal;HPM_P1;HPM_P2
2022/09/07 00:01:49;;;;;;;17.00;10.60;;;18.60;99.90;;;;;;5120779;28;20078;-56
2022/09/07 00:04:15;;;;;;;14.05;9.50;;;18.60;99.90;;;;;;5120909;28;20035;-55
2022/09/07 00:06:40;;;;;;;13.60;8.70;;;18.60;99.90;;;;;;5120636;28;20040;-55
2022/09/07 00:09:06;;;;;;;15.68;9.73;;;18.40;99.90;;;;;;5120638;28;20027;-55
2022/09/07 00:11:32;;;;;;;14.70;9.27;;;18.50;99.90;;;;;;5120503;28;20024;-55
2022/09/07 00:13:58;;;;;;;15.70;9.75;;;18.50;99.90;;;;;;5120709;28;20110;-55
2022/09/07 00:16:28;;;;;;;17.92;10.98;;;18.70;99.90;;;;;;5085777;28;20092;-55
2022/09/07 00:18:57;;;;;;;16.67;10.40;;;18.70;99.90;;;;;;5120581;28;20059;-56
2022/09/07 00:21:24;;;;;;;16.15;9.75;;;18.80;99.90;;;;;;5120327;28;20493;-55
2022/09/07 00:23:51;;;;;;;15.63;10.27;;;18.80;99.90;;;;;;5102539;28;20409;-56
2022/09/07 00:26:20;;;;;;;22.10;11.15;;;18.80;99.90;;;;;;5120140;28;20042;-56
2022/09/07 00:28:47;;;;;;;15.45;10.07;;;18.90;99.90;;;;;;5120165;28;20035;-56
2022/09/07 00:31:16;;;;;;;16.00;10.07;;;18.90;99.90;;;;;;5120225;28;20035;-56
2022/09/07 00:33:42;;;;;;;22.08;11.90;;;19.00;99.90;;;;;;5119797;28;20046;-56
2022/09/07 00:36:08;;;;;;;19.10;11.45;;;19.10;99.90;;;;;;5120018;28;20062;-56
2022/09/07 00:38:34;;;;;;;18.65;11.02;;;19.10;99.90;;;;;;5120000;28;20032;-56
2022/09/07 00:41:00;;;;;;;19.42;11.73;;;19.00;99.90;;;;;;5103065;28;20047;-55
2022/09/07 00:43:33;;;;;;;20.80;12.85;;;18.90;99.90;;;;;;5120210;28;20024;-56
2022/09/07 00:46:01;;;;;;;24.73;16.45;;;18.90;99.90;;;;;;5119920;28;20036;-56
2022/09/07 00:48:57;;;;;;;18.88;14.50;;;18.90;99.90;;;;;;5119813;28;20016;-56
2022/09/07 00:51:39;;;;;;;23.95;16.35;;;18.80;99.90;;;;;;5111727;28;20051;-56
2022/09/07 00:54:16;;;;;;;28.02;20.40;;;18.80;99.90;;;;;;5119629;28;20052;-56
2022/09/07 00:56:44;;;;;;;32.55;21.50;;;18.80;99.90;;;;;;5101940;28;20074;-56
2022/09/07 00:59:12;;;;;;;45.65;27.80;;;18.80;99.90;;;;;;5119713;28;20045;-56
2022/09/07 01:01:39;;;;;;;32.33;23.25;;;18.80;99.90;;;;;;5101876;28;20039;-56
2022/09/07 01:04:05;;;;;;;36.38;26.15;;;18.90;99.90;;;;;;5119564;28;20031;-59
2022/09/07 01:06:34;;;;;;;40.38;26.90;;;18.90;99.90;;;;;;5119579;28;20036;-56
2022/09/07 01:09:09;;;;;;;38.67;26.50;;;18.90;99.90;;;;;;5101577;28;20051;-56
2022/09/07 01:11:35;;;;;;;46.78;30.30;;;19.00;99.90;;;;;;5119913;28;20066;-56
2022/09/07 01:14:07;;;;;;;38.83;24.83;;;18.90;99.90;;;;;;5119908;28;20032;-56
2022/09/07 01:16:56;;;;;;;28.03;23.03;;;18.90;99.90;;;;;;5101712;28;20035;-56
2022/09/07 01:19:41;;;;;;;28.75;22.38;;;18.70;99.90;;;;;;5088367;28;20413;-56
2022/09/07 01:22:37;;;;;;;33.58;24.75;;;18.60;99.90;;;;;;5084483;28;20298;-57
2022/09/07 01:25:06;;;;;;;36.17;26.85;;;18.70;99.90;;;;;;5119138;28;20472;-56
2022/09/07 01:28:08;;;;;;;35.17;25.83;;;18.60;99.90;;;;;;5119088;28;20106;-57
2022/09/07 01:30:37;;;;;;;26.42;22.08;;;18.60;99.90;;;;;;5119070;28;20042;-56
2022/09/07 01:33:28;;;;;;;22.17;17.15;;;18.50;99.90;;;;;;5119001;28;20042;-55
2022/09/07 01:36:20;;;;;;;16.23;13.63;;;18.40;99.90;;;;;;5118959;28;20038;-54
2022/09/07 01:39:01;;;;;;;16.30;12.07;;;18.30;99.90;;;;;;5118881;28;20043;-55
2022/09/07 01:41:47;;;;;;;11.55;9.15;;;18.20;99.90;;;;;;5118850;28;20023;-55
2022/09/07 01:44:25;;;;;;;12.82;9.90;;;18.00;99.90;;;;;;5118777;28;20039;-55
2022/09/07 01:47:01;;;;;;;14.10;10.77;;;18.00;99.90;;;;;;5118557;28;20023;-55
2022/09/07 01:49:58;;;;;;;10.15;9.07;;;18.00;99.90;;;;;;5118768;28;20038;-55
2022/09/07 01:52:39;;;;;;;9.85;8.48;;;17.80;99.90;;;;;;5100806;28;20035;-55
2022/09/07 01:55:32;;;;;;;10.43;8.48;;;17.70;99.90;;;;;;5118741;28;20299;-55
2022/09/07 01:58:02;;;;;;;;;;;17.70;99.90;;;;;;5118901;28;20035;-55
2022/09/07 02:00:30;;;;;;;8.05;7.30;;;17.50;99.90;;;;;;5100654;28;19926;-55
2022/09/07 02:03:29;;;;;;;10.00;8.48;;;17.40;99.90;;;;;;5118865;28;20034;-55
2022/09/07 02:06:15;;;;;;;9.70;8.30;;;17.40;99.90;;;;;;5118751;28;20102;-55
2022/09/07 02:09:02;;;;;;;10.80;9.00;;;17.40;99.90;;;;;;5118278;28;20027;-55
2022/09/07 02:11:41;;;;;;;11.85;9.18;;;17.40;99.90;;;;;;5100465;28;20024;-56
2022/09/07 02:14:32;;;;;;;10.95;8.73;;;17.40;99.90;;;;;;5118619;28;20051;-55
2022/09/07 02:17:13;;;;;;;13.00;9.52;;;17.30;99.90;;;;;;5100436;28;20387;-56
2022/09/07 02:19:50;;;;;;;10.80;9.70;;;17.40;99.90;;;;;;5118183;28;20280;-56
2022/09/07 02:22:21;;;;;;;17.38;10.70;;;17.40;99.90;;;;;;5117907;28;20092;-55
2022/09/07 02:24:51;;;;;;;13.15;9.90;;;17.30;99.90;;;;;;5118236;28;20399;-56
2022/09/07 02:27:25;;;;;;;14.43;10.32;;;17.30;99.90;;;;;;5117973;28;20031;-56
2022/09/07 02:29:52;;;;;;;12.18;10.88;;;17.40;99.90;;;;;;5100185;28;20046;-56
2022/09/07 02:32:19;;;;;;;14.77;10.32;;;17.60;99.90;;;;;;5117858;28;20024;-56
2022/09/07 02:34:45;;;;;;;13.73;10.75;;;17.50;99.90;;;;;;5117844;28;20395;-56
2022/09/07 02:37:12;;;;;;;13.40;10.70;;;17.50;99.90;;;;;;5099896;28;20031;-56
2022/09/07 02:39:38;;;;;;;14.98;11.10;;;17.40;99.90;;;;;;5117753;28;20048;-56
2022/09/07 02:42:04;;;;;;;14.13;10.85;;;17.40;99.90;;;;;;5117732;28;20387;-56
2022/09/07 02:44:34;;;;;;;14.43;10.60;;;17.30;99.90;;;;;;5099762;28;20051;-56
2022/09/07 02:47:00;;;;;;;15.52;10.98;;;17.40;99.90;;;;;;5117591;28;20058;-56
2022/09/07 02:49:52;;;;;;;13.98;10.98;;;17.40;99.90;;;;;;5099915;28;20349;-56
2022/09/07 02:52:38;;;;;;;11.83;10.00;;;17.40;99.90;;;;;;5117773;28;20413;-56
2022/09/07 02:55:42;;;;;;;13.10;10.70;;;17.40;99.90;;;;;;5099831;28;20042;-56
2022/09/07 02:58:30;;;;;;;16.17;11.35;;;17.30;99.90;;;;;;5116950;28;20024;-56
2022/09/07 03:01:12;;;;;;;15.05;10.50;;;17.40;99.90;;;;;;5117735;28;20421;-56
2022/09/07 03:04:11;;;;;;;14.73;10.77;;;17.30;99.90;;;;;;5117791;28;20396;-55
2022/09/07 03:06:48;;;;;;;13.82;10.13;;;17.30;99.90;;;;;;5093056;28;20735;-56
2022/09/07 03:09:24;;;;;;;16.33;11.60;;;17.20;99.90;;;;;;5117715;28;20272;-56
2022/09/07 03:11:51;;;;;;;16.52;11.38;;;17.20;99.90;;;;;;5117842;28;20034;-56
2022/09/07 03:14:19;;;;;;;18.48;12.60;;;17.30;99.90;;;;;;5117395;28;20027;-56
2022/09/07 03:16:51;;;;;;;13.90;11.70;;;17.30;99.90;;;;;;5117307;28;20032;-56
2022/09/07 03:19:17;;;;;;;14.85;11.40;;;17.30;99.90;;;;;;5117738;28;20443;-56
2022/09/07 03:21:43;;;;;;;15.80;11.10;;;17.30;99.90;;;;;;5117316;28;20019;-56
2022/09/07 03:24:09;;;;;;;13.27;10.20;;;17.20;99.90;;;;;;5117158;28;20413;-56
2022/09/07 03:26:45;;;;;;;15.90;11.27;;;17.20;99.90;;;;;;5117311;28;20106;-56
2022/09/07 03:29:11;;;;;;;15.25;11.88;;;17.20;99.90;;;;;;5117105;28;20032;-56
2022/09/07 03:31:37;;;;;;;12.30;10.68;;;17.30;99.90;;;;;;5117102;28;20062;-56
2022/09/07 03:34:03;;;;;;;11.20;9.95;;;17.40;99.90;;;;;;5117066;28;20055;-56
2022/09/07 03:36:29;;;;;;;18.23;12.13;;;17.40;99.90;;;;;;5117659;28;20047;-56
2022/09/07 03:38:55;;;;;;;17.05;11.60;;;17.40;99.90;;;;;;5117055;28;20050;-56
2022/09/07 03:41:21;;;;;;;15.35;11.38;;;17.50;99.90;;;;;;5117024;28;20055;-57
2022/09/07 03:43:47;;;;;;;12.23;10.73;;;17.60;99.90;;;;;;5116990;28;20059;-56
2022/09/07 03:46:18;;;;;;;12.82;10.82;;;17.60;99.90;;;;;;5116910;28;20032;-57
2022/09/07 03:48:45;;;;;;;12.48;10.57;;;17.60;99.90;;;;;;5082438;28;20110;-56
2022/09/07 03:51:12;;;;;;;12.50;10.63;;;17.60;99.90;;;;;;5116992;28;20032;-57
2022/09/07 03:53:40;;;;;;;11.38;10.27;;;17.60;99.90;;;;;;5116800;28;20126;-57
2022/09/07 03:56:14;;;;;;;12.52;10.02;;;17.60;99.90;;;;;;5099125;28;20118;-57
2022/09/07 03:58:41;;;;;;;12.95;9.43;;;17.50;99.90;;;;;;5116824;28;20044;-57
2022/09/07 04:01:10;;;;;;;13.25;9.68;;;17.50;99.90;;;;;;5116943;28;20031;-57
2022/09/07 04:03:36;;;;;;;10.90;9.40;;;17.40;99.90;;;;;;5116842;28;20027;-57
2022/09/07 04:06:03;;;;;;;14.75;9.15;;;17.30;99.90;;;;;;5116788;28;20348;-57
2022/09/07 04:08:31;;;;;;;15.38;10.90;;;17.20;99.90;;;;;;5099180;28;20092;-57
2022/09/07 04:11:01;;;;;;;14.95;11.63;;;17.20;99.90;;;;;;5119776;28;20074;-57
2022/09/07 04:13:28;;;;;;;16.23;11.77;;;17.30;99.90;;;;;;5103020;28;20027;-57
2022/09/07 04:15:54;;;;;;;16.08;10.68;;;17.20;99.90;;;;;;5120604;28;20040;-57
2022/09/07 04:18:21;;;;;;;15.15;11.07;;;17.00;99.90;;;;;;5103074;28;20031;-57
2022/09/07 04:20:49;;;;;;;15.27;11.38;;;17.10;99.90;;;;;;5120444;28;20138;-57
2022/09/07 04:23:16;;;;;;;15.88;11.52;;;17.00;99.90;;;;;;5102697;28;20055;-57
2022/09/07 04:25:49;;;;;;;16.25;11.57;;;17.00;99.90;;;;;;5120283;28;20038;-57
2022/09/07 04:28:16;;;;;;;15.48;11.65;;;17.00;99.90;;;;;;5120202;28;20394;-57
2022/09/07 04:30:42;;;;;;;15.80;11.52;;;17.00;99.90;;;;;;5120167;28;20019;-57
2022/09/07 04:33:08;;;;;;;17.73;12.30;;;17.00;99.90;;;;;;5120186;28;20038;-58
2022/09/07 04:35:39;;;;;;;14.95;12.23;;;16.90;99.90;;;;;;5085522;28;20028;-56
2022/09/07 04:38:05;;;;;;;20.27;12.68;;;17.00;99.90;;;;;;5102382;28;20035;-56
2022/09/07 04:40:31;;;;;;;17.67;13.27;;;16.90;99.90;;;;;;5102358;28;20036;-57
2022/09/07 04:42:57;;;;;;;17.90;13.07;;;16.90;99.90;;;;;;5102320;28;20092;-56
2022/09/07 04:45:23;;;;;;;18.65;13.65;;;16.90;99.90;;;;;;5102166;28;20039;-56
2022/09/07 04:47:50;;;;;;;21.95;14.40;;;17.00;99.90;;;;;;5119994;28;20455;-56
2022/09/07 04:50:17;;;;;;;18.27;13.52;;;17.00;99.90;;;;;;5120088;28;20098;-56
2022/09/07 04:52:45;;;;;;;17.85;12.98;;;17.00;99.90;;;;;;5119777;28;20167;-56
2022/09/07 04:55:12;;;;;;;19.15;13.90;;;17.00;99.90;;;;;;5119864;28;20104;-56
2022/09/07 04:57:38;;;;;;;19.38;14.48;;;17.10;99.90;;;;;;5119693;28;20311;-57
2022/09/07 05:00:12;;;;;;;22.67;15.02;;;17.20;99.90;;;;;;5102284;28;20035;-56
2022/09/07 05:02:37;;;;;;;17.73;14.23;;;17.30;99.90;;;;;;5102009;28;20104;-57
2022/09/07 05:05:05;;;;;;;18.88;14.23;;;17.10;99.90;;;;;;5101744;28;20023;-57
2022/09/07 05:07:30;;;;;;;17.55;13.68;;;16.90;99.90;;;;;;5101740;28;20323;-57
2022/09/07 05:09:56;;;;;;;19.45;14.13;;;17.00;99.90;;;;;;5119503;28;20023;-57
2022/09/07 05:12:22;;;;;;;17.88;14.15;;;16.90;99.90;;;;;;5119234;28;20035;-57
2022/09/07 05:14:48;;;;;;;18.05;13.63;;;17.10;99.90;;;;;;5119236;28;20055;-57
2022/09/07 05:17:14;;;;;;;17.15;13.75;;;17.10;99.90;;;;;;5119112;28;20132;-57
2022/09/07 05:19:40;;;;;;;15.65;12.82;;;17.10;99.90;;;;;;5119053;28;20020;-58
2022/09/07 05:22:06;;;;;;;14.32;12.70;;;17.00;99.90;;;;;;5118714;28;20030;-57
2022/09/07 05:24:35;;;;;;;19.63;14.43;;;16.90;99.90;;;;;;5101367;28;20046;-57
2022/09/07 05:27:02;;;;;;;14.90;13.40;;;16.90;99.90;;;;;;5119059;28;20024;-57
2022/09/07 05:29:29;;;;;;;19.88;13.48;;;16.90;99.90;;;;;;5119085;28;20020;-57
2022/09/07 05:31:55;;;;;;;17.52;14.05;;;17.00;99.90;;;;;;5119069;28;20031;-56
2022/09/07 05:34:21;;;;;;;15.30;13.60;;;17.10;99.90;;;;;;5118885;28;20028;-56
2022/09/07 05:36:47;;;;;;;17.85;15.90;;;17.00;99.90;;;;;;5118858;28;20050;-57
2022/09/07 05:39:12;;;;;;;19.30;17.15;;;17.00;99.90;;;;;;5119266;28;20122;-57
2022/09/07 05:41:38;;;;;;;19.73;16.98;;;17.00;99.90;;;;;;5118952;28;20031;-57
2022/09/07 05:44:05;;;;;;;20.60;16.88;;;17.00;99.90;;;;;;5118894;28;20041;-57
2022/09/07 05:46:31;;;;;;;23.58;17.73;;;17.10;99.90;;;;;;5118819;28;20331;-57
2022/09/07 05:48:57;;;;;;;22.77;16.73;;;17.30;99.90;;;;;;5101232;28;20084;-57
2022/09/07 05:51:23;;;;;;;24.33;18.70;;;17.40;99.90;;;;;;5100930;28;20028;-57
2022/09/07 05:53:49;;;;;;;22.55;18.50;;;17.30;99.90;;;;;;5118152;28;20098;-57
2022/09/07 05:56:15;;;;;;;23.92;18.88;;;17.40;99.90;;;;;;5119160;28;20088;-57
2022/09/07 05:58:41;;;;;;;23.08;19.60;;;17.40;99.90;;;;;;5118815;28;20083;-57
2022/09/07 06:01:10;;;;;;;24.75;20.00;;;17.40;99.90;;;;;;5101712;28;20027;-57
2022/09/07 06:03:38;;;;;;;24.98;20.25;;;17.40;99.90;;;;;;5118373;28;20043;-57
2022/09/07 06:06:10;;;;;;;25.98;20.80;;;17.50;99.90;;;;;;5100670;28;20122;-57
2022/09/07 06:08:37;;;;;;;25.67;21.13;;;17.40;99.90;;;;;;5084319;28;20039;-58
2022/09/07 06:11:08;;;;;;;27.20;21.67;;;17.50;99.90;;;;;;5118296;28;20165;-57
2022/09/07 06:13:35;;;;;;;25.17;21.13;;;17.60;99.90;;;;;;5100797;28;20397;-57
2022/09/07 06:16:02;;;;;;;25.23;21.77;;;17.60;99.90;;;;;;5118226;28;20027;-57
2022/09/07 06:18:30;;;;;;;29.05;21.98;;;17.70;99.90;;;;;;5118403;28;20031;-58
2022/09/07 06:21:04;;;;;;;25.75;21.10;;;17.70;99.90;;;;;;5118083;28;20059;-58
2022/09/07 06:23:31;;;;;;;23.30;20.15;;;17.80;99.90;;;;;;5118004;28;20047;-57
2022/09/07 06:25:57;;;;;;;26.08;21.30;;;17.70;99.90;;;;;;5118024;28;20074;-57
2022/09/07 06:28:34;;;;;;;25.40;21.48;;;17.70;99.90;;;;;;5118279;28;20024;-57
2022/09/07 06:31:01;;;;;;;29.00;23.30;;;17.70;99.90;;;;;;5118000;28;20072;-58
2022/09/07 06:33:27;;;;;;;22.90;18.40;;;17.70;99.90;;;;;;5117106;28;20023;-55
2022/09/07 06:35:57;;;;;;;31.25;24.08;;;18.00;99.90;;;;;;5118133;28;20036;-57
2022/09/07 06:38:24;;;;;;;27.98;23.45;;;18.10;99.90;;;;;;5100732;28;20085;-56
2022/09/07 06:40:50;;;;;;;29.00;23.42;;;18.10;99.90;;;;;;5117798;28;20082;-56
2022/09/07 06:43:15;;;;;;;30.40;23.95;;;18.00;99.90;;;;;;5100046;28;20340;-57
2022/09/07 06:45:41;;;;;;;29.30;23.50;;;18.10;99.90;;;;;;5099973;28;20123;-57
2022/09/07 06:48:07;;;;;;;25.38;22.30;;;18.00;99.90;;;;;;5099976;28;20042;-57
2022/09/07 06:50:33;;;;;;;29.05;22.33;;;18.00;99.90;;;;;;5117725;28;20110;-57
2022/09/07 06:52:59;;;;;;;30.02;22.80;;;18.00;99.90;;;;;;5117464;28;20093;-58
2022/09/07 06:55:27;;;;;;;26.35;21.83;;;18.10;99.90;;;;;;5117589;28;20066;-57
2022/09/07 06:57:53;;;;;;;25.75;22.00;;;18.20;99.90;;;;;;5117558;28;20044;-57
2022/09/07 07:00:19;;;;;;;25.92;22.23;;;18.20;99.90;;;;;;5117637;28;20096;-57
2022/09/07 07:02:45;;;;;;;28.38;21.83;;;18.30;99.90;;;;;;5117517;28;20023;-58
2022/09/07 07:05:10;;;;;;;28.95;22.95;;;18.30;99.90;;;;;;5117387;28;20054;-58
2022/09/07 07:07:36;;;;;;;24.95;21.15;;;18.50;99.90;;;;;;5117453;28;20031;-57
2022/09/07 07:10:02;;;;;;;24.98;20.73;;;18.60;99.90;;;;;;5117661;28;20385;-58
2022/09/07 07:12:29;;;;;;;25.35;21.05;;;18.60;99.90;;;;;;5117376;28;20032;-57
2022/09/07 07:14:56;;;;;;;26.70;21.92;;;18.60;99.90;;;;;;5117398;28;20359;-58
2022/09/07 07:17:21;;;;;;;26.20;21.50;;;18.60;99.90;;;;;;5117358;28;20027;-56
2022/09/07 07:19:47;;;;;;;28.58;21.98;;;18.60;99.90;;;;;;5117329;28;20035;-56
2022/09/07 07:22:14;;;;;;;28.52;21.92;;;18.70;99.90;;;;;;5117398;28;20123;-56
2022/09/07 07:24:40;;;;;;;28.30;21.73;;;18.80;99.90;;;;;;5117115;28;20084;-55
2022/09/07 07:27:06;;;;;;;25.77;21.52;;;18.80;99.90;;;;;;5117342;28;20318;-56
2022/09/07 07:29:31;;;;;;;26.35;21.13;;;19.00;99.90;;;;;;5117247;28;20058;-58
2022/09/07 07:31:57;;;;;;;25.20;21.10;;;19.00;99.90;;;;;;5117473;28;20042;-55
2022/09/07 07:34:23;;;;;;;24.90;20.98;;;18.90;99.90;;;;;;5117117;28;20019;-58
2022/09/07 07:36:49;;;;;;;29.50;21.00;;;18.80;99.90;;;;;;5117638;28;20040;-57
2022/09/07 07:39:15;;;;;;;24.85;20.17;;;18.80;99.90;;;;;;5117039;28;20287;-58
2022/09/07 07:41:40;;;;;;;25.75;19.73;;;18.80;99.90;;;;;;5099347;28;20395;-57
2022/09/07 07:44:08;;;;;;;26.60;19.88;;;18.90;99.90;;;;;;5118916;28;20509;-55
2022/09/07 07:46:33;;;;;;;26.48;18.98;;;19.00;99.90;;;;;;5121297;28;20352;-57
2022/09/07 07:48:59;;;;;;;25.65;19.27;;;19.00;99.90;;;;;;5103323;28;20032;-55
2022/09/07 07:51:25;;;;;;;25.33;18.10;;;19.10;99.90;;;;;;5121378;28;20024;-57
2022/09/07 07:53:51;;;;;;;23.73;17.70;;;19.10;99.90;;;;;;5120876;28;20050;-55
2022/09/07 07:56:17;;;;;;;25.80;17.38;;;19.20;99.90;;;;;;5120970;28;20062;-55
2022/09/07 07:58:45;;;;;;;22.35;16.00;;;19.30;99.90;;;;;;5103390;28;20143;-55
2022/09/07 08:01:13;;;;;;;17.08;13.63;;;19.40;99.90;;;;;;5103823;28;20023;-56
2022/09/07 08:03:42;;;;;;;14.38;11.82;;;19.30;99.90;;;;;;5120630;28;20080;-56
2022/09/07 08:06:11;;;;;;;18.63;11.98;;;19.40;99.90;;;;;;5120683;28;20031;-56
2022/09/07 08:08:37;;;;;;;18.55;11.52;;;19.70;99.90;;;;;;5120712;28;20032;-56
2022/09/07 08:11:07;;;;;;;14.63;9.85;;;19.90;99.90;;;;;;5120640;28;20039;-56
2022/09/07 08:13:37;;;;;;;13.77;9.65;;;20.10;99.90;;;;;;5120696;28;20084;-56
2022/09/07 08:16:04;;;;;;;11.38;7.05;;;20.10;99.90;;;;;;5120402;28;20024;-55
2022/09/07 08:18:32;;;;;;;11.43;6.70;;;20.10;99.90;;;;;;5120431;28;20181;-56
2022/09/07 08:21:01;;;;;;;7.53;5.28;;;20.20;99.90;;;;;;5120479;28;20059;-55
2022/09/07 08:23:27;;;;;;;8.38;4.50;;;20.20;99.90;;;;;;5120408;28;20037;-55
2022/09/07 08:25:55;;;;;;;9.23;4.72;;;20.10;99.90;;;;;;5085497;28;20050;-55
2022/09/07 08:28:22;;;;;;;7.82;3.70;;;20.10;99.90;;;;;;5120583;28;20032;-56
2022/09/07 08:30:48;;;;;;;5.10;3.03;;;20.10;99.90;;;;;;5120348;28;20030;-56
2022/09/07 08:33:14;;;;;;;8.27;2.53;;;20.10;99.90;;;;;;5120318;28;20027;-56
2022/09/07 08:35:40;;;;;;;9.45;2.78;;;20.20;99.90;;;;;;5120231;28;20034;-57
2022/09/07 08:38:06;;;;;;;5.93;2.47;;;20.40;99.90;;;;;;5085553;28;20036;-56
2022/09/07 08:40:35;;;;;;;5.68;2.03;;;20.30;99.90;;;;;;5120127;28;20038;-57
2022/09/07 08:43:32;;;;;;;6.13;2.95;;;20.20;99.90;;;;;;5120101;28;20023;-57
2022/09/07 08:46:41;;;;;;;7.68;2.10;;;20.10;99.90;;;;;;5120136;28;20027;-57
2022/09/07 08:49:22;;;;;;;4.38;1.67;;;20.20;99.90;;;;;;5018161;28;20075;-57
2022/09/07 08:52:04;;;;;;;5.65;1.60;;;20.40;99.90;;;;;;5115447;28;20039;-57
2022/09/07 08:54:31;;;;;;;3.03;1.40;;;20.50;99.90;;;;;;5119949;28;20039;-57
2022/09/07 08:57:01;;;;;;;4.90;1.20;;;20.50;99.90;;;;;;5119056;28;20039;-58
2022/09/07 08:59:45;;;;;;;4.80;1.60;;;20.50;99.90;;;;;;5119782;28;20019;-58
2022/09/07 09:02:16;;;;;;;4.43;1.42;;;20.60;99.90;;;;;;5102037;28;20016;-58
2022/09/07 09:04:42;;;;;;;6.63;1.73;;;20.90;99.90;;;;;;5101965;28;20299;-58
2022/09/07 09:07:24;;;;;;;4.25;1.65;;;21.10;99.90;;;;;;5101886;28;20050;-58
2022/09/07 09:10:02;;;;;;;3.88;1.30;;;21.00;99.90;;;;;;5119557;28;20414;-58
2022/09/07 09:12:47;;;;;;;8.25;1.75;;;20.90;99.90;;;;;;5119564;28;20063;-58
2022/09/07 09:15:22;;;;;;;7.18;1.83;;;21.00;99.90;;;;;;5101319;28;20340;-58
2022/09/07 09:18:18;;;;;;;3.95;1.30;;;21.00;99.90;;;;;;5119374;28;20024;-59
2022/09/07 09:20:58;;;;;;;3.85;1.27;;;21.10;99.90;;;;;;5119278;28;20028;-57
2022/09/07 09:23:27;;;;;;;5.47;1.17;;;21.20;99.90;;;;;;5119745;28;20027;-58
2022/09/07 09:26:00;;;;;;;4.43;1.23;;;21.00;99.90;;;;;;5119205;28;20063;-59
2022/09/07 09:28:26;;;;;;;4.25;1.40;;;21.10;99.90;;;;;;5119136;28;20028;-59
2022/09/07 09:30:51;;;;;;;3.92;1.23;;;21.40;99.90;;;;;;5102142;28;20092;-59
2022/09/07 09:33:19;;;;;;;5.35;1.38;;;21.40;99.90;;;;;;5119104;28;20137;-59
2022/09/07 09:35:50;;;;;;;4.40;1.30;;;21.40;99.90;;;;;;5119124;28;20035;-59
2022/09/07 09:38:31;;;;;;;5.78;1.60;;;21.30;99.90;;;;;;5118964;28;20391;-59
2022/09/07 09:41:07;;;;;;;3.78;1.30;;;21.30;99.90;;;;;;5101399;28;20042;-60
2022/09/07 09:43:42;;;;;;;4.05;1.30;;;21.40;99.90;;;;;;5118872;28;20043;-59
2022/09/07 09:46:27;;;;;;;5.93;1.73;;;21.50;99.90;;;;;;5119413;28;20035;-60
2022/09/07 09:49:02;;;;;;;4.32;1.58;;;21.60;99.90;;;;;;5118785;28;20027;-60
2022/09/07 09:51:32;;;;;;;4.00;1.40;;;21.90;99.90;;;;;;5118789;28;20084;-59
2022/09/07 09:54:32;;;;;;;5.93;1.25;;;22.20;99.90;;;;;;5100930;28;20411;-60
2022/09/07 09:57:00;;;;;;;6.43;1.63;;;22.20;99.90;;;;;;5118731;28;20023;-60
2022/09/07 09:59:31;;;;;;;7.85;1.40;;;22.40;99.90;;;;;;5118775;28;20110;-59
2022/09/07 10:01:58;;;;;;;6.28;1.20;;;22.90;99.90;;;;;;5118631;28;20414;-59
2022/09/07 10:04:24;;;;;;;3.55;1.35;;;23.00;99.90;;;;;;5100687;28;20104;-60
2022/09/07 10:06:55;;;;;;;4.05;1.42;;;23.20;99.90;;;;;;5118266;28;20036;-60
2022/09/07 10:09:25;;;;;;;3.70;1.30;;;22.80;99.90;;;;;;5118233;28;20333;-60
2022/09/07 10:11:58;;;;;;;5.75;1.38;;;22.30;99.90;;;;;;5118468;28;20024;-59
2022/09/07 10:14:26;;;;;;;3.55;1.20;;;22.50;99.90;;;;;;5100516;28;20039;-59
2022/09/07 10:16:52;;;;;;;4.15;1.17;;;22.30;99.90;;;;;;5118201;28;20023;-59
2022/09/07 10:19:39;;;;;;;4.45;1.20;;;22.40;99.90;;;;;;5118196;28;20046;-60
2022/09/07 10:22:33;;;;;;;2.83;1.38;;;22.70;99.90;;;;;;5118285;28;20023;-59
2022/09/07 10:25:02;;;;;;;4.40;1.20;;;23.00;99.90;;;;;;5106250;28;20058;-57
2022/09/07 10:27:37;;;;;;;4.10;1.33;;;23.10;99.90;;;;;;5118134;28;20134;-59
2022/09/07 10:30:13;;;;;;;6.72;1.40;;;23.40;99.90;;;;;;5118034;28;20307;-59
2022/09/07 10:32:59;;;;;;;4.65;1.10;;;23.60;99.90;;;;;;5100980;28;20279;-59
2022/09/07 10:35:33;;;;;;;5.03;1.23;;;23.50;99.90;;;;;;5118014;28;20382;-58
2022/09/07 10:38:11;;;;;;;4.38;1.40;;;23.70;99.90;;;;;;5100200;28;20103;-58
2022/09/07 10:40:44;;;;;;;4.93;1.30;;;24.10;99.90;;;;;;5117976;28;20164;-59
2022/09/07 10:43:23;;;;;;;3.25;1.17;;;24.30;99.90;;;;;;5118380;28;20031;-60
2022/09/07 10:46:08;;;;;;;2.53;0.90;;;24.20;99.90;;;;;;5100617;28;20035;-59
2022/09/07 10:48:48;;;;;;;6.70;1.30;;;24.90;99.90;;;;;;5117677;28;20027;-61
2022/09/07 10:51:28;;;;;;;3.05;1.00;;;25.60;99.90;;;;;;5117683;28;20051;-60
2022/09/07 10:54:23;;;;;;;4.30;1.10;;;25.90;99.90;;;;;;5117520;28;20039;-60
2022/09/07 10:57:06;;;;;;;4.20;1.17;;;25.50;99.90;;;;;;5117980;28;20063;-60
2022/09/07 10:59:55;;;;;;;2.80;1.20;;;25.40;99.90;;;;;;5117643;28;20319;-60
2022/09/07 11:02:38;;;;;;;4.95;1.00;;;25.30;99.90;;;;;;5086577;28;20062;-59
2022/09/07 11:05:25;;;;;;;4.35;1.05;;;25.10;99.90;;;;;;5117293;28;20031;-60
2022/09/07 11:08:00;;;;;;;5.78;1.10;;;26.40;99.90;;;;;;5117509;28;20027;-60
2022/09/07 11:10:35;;;;;;;4.28;1.20;;;25.90;99.90;;;;;;5117773;28;20435;-58
2022/09/07 11:13:04;;;;;;;5.38;1.52;;;25.70;99.90;;;;;;5117400;28;20028;-60
2022/09/07 11:15:44;;;;;;;3.00;1.10;;;25.10;99.90;;;;;;5117483;28;20034;-60
2022/09/07 11:18:26;;;;;;;2.08;0.90;;;24.80;99.90;;;;;;5117278;28;20359;-59
2022/09/07 11:20:54;;;;;;;;;;;24.60;99.90;;;;;;5117750;28;20028;-59
2022/09/07 11:23:27;;;;;;;5.63;0.90;;;24.70;99.90;;;;;;5117151;28;19915;-58
2022/09/07 11:25:57;;;;;;;5.82;1.17;;;24.00;99.90;;;;;;5117731;28;20291;-58
2022/09/07 11:28:37;;;;;;;4.20;1.08;;;24.10;99.90;;;;;;5117233;28;20134;-60
2022/09/07 11:31:15;;;;;;;3.50;1.05;;;24.10;99.90;;;;;;5117542;28;20046;-59
2022/09/07 11:34:04;;;;;;;4.10;1.20;;;24.40;99.90;;;;;;5101288;28;20027;-59
2022/09/07 11:36:36;;;;;;;7.88;1.23;;;24.40;99.90;;;;;;5103860;28;20064;-58
2022/09/07 11:39:13;;;;;;;8.33;1.40;;;24.60;99.90;;;;;;5117248;28;20062;-59
2022/09/07 11:41:45;;;;;;;4.82;1.05;;;25.40;99.90;;;;;;5117177;28;20302;-59
2022/09/07 11:44:33;;;;;;;2.67;1.05;;;26.40;99.90;;;;;;5116747;28;20026;-59
2022/09/07 11:47:48;;;;;;;5.05;1.02;;;26.20;99.90;;;;;;5117114;28;20031;-60
2022/09/07 11:50:17;;;;;;;3.25;1.02;;;26.10;99.90;;;;;;5100936;28;20039;-59
2022/09/07 11:53:08;;;;;;;2.83;1.10;;;26.30;99.90;;;;;;5116730;28;20036;-61
2022/09/07 11:55:41;;;;;;;5.10;1.08;;;26.50;99.90;;;;;;5116963;28;20402;-59
2022/09/07 11:58:36;;;;;;;4.32;1.35;;;27.30;99.90;;;;;;5117073;28;20084;-59
2022/09/07 12:01:23;;;;;;;4.22;1.15;;;27.70;99.90;;;;;;5072229;28;20043;-58
2022/09/07 12:04:01;;;;;;;4.85;1.25;;;26.90;99.90;;;;;;5116917;28;20067;-58
2022/09/07 12:06:49;;;;;;;2.88;0.95;;;27.90;99.90;;;;;;5116909;28;20483;-60
2022/09/07 12:09:51;;;;;;;4.18;1.00;;;28.10;99.90;;;;;;5116781;28;20076;-60
2022/09/07 12:12:40;;;;;;;4.45;0.98;;;27.90;99.90;;;;;;5117465;28;20260;-60
2022/09/07 12:15:29;;;;;;;4.60;1.05;;;27.60;99.90;;;;;;5116741;28;20026;-61
2022/09/07 12:18:01;;;;;;;4.25;1.00;;;27.10;99.90;;;;;;5116835;28;20441;-60
2022/09/07 12:20:41;;;;;;;2.97;0.80;;;27.50;99.90;;;;;;5116837;28;20028;-60
2022/09/07 12:23:16;;;;;;;4.60;0.98;;;27.50;99.90;;;;;;5116864;28;20032;-59
2022/09/07 12:25:44;;;;;;;4.07;1.05;;;26.80;99.90;;;;;;5116583;28;20077;-61
2022/09/07 12:28:17;;;;;;;4.35;1.23;;;27.60;99.90;;;;;;5116599;28;20042;-60
2022/09/07 12:31:13;;;;;;;3.10;1.10;;;27.30;99.90;;;;;;5117364;28;20294;-60
2022/09/07 12:33:39;;;;;;;5.93;1.00;;;27.00;99.90;;;;;;5099653;28;20150;-60
2022/09/07 12:36:27;;;;;;;5.05;1.20;;;25.70;99.90;;;;;;5120291;28;20176;-59
2022/09/07 12:39:27;;;;;;;6.20;1.05;;;25.90;99.90;;;;;;5120086;28;20057;-60
2022/09/07 12:42:04;;;;;;;3.33;0.98;;;25.60;99.90;;;;;;5120707;28;20100;-61
2022/09/07 12:44:34;;;;;;;5.45;1.13;;;25.00;99.90;;;;;;5119966;28;20032;-61
2022/09/07 12:47:02;;;;;;;3.40;1.08;;;25.60;99.90;;;;;;5120340;28;20028;-61
2022/09/07 12:49:40;;;;;;;7.03;1.10;;;25.90;99.90;;;;;;5120017;28;20325;-61
2022/09/07 12:52:14;;;;;;;4.53;1.20;;;26.00;99.90;;;;;;5119762;28;20028;-63
2022/09/07 12:54:50;;;;;;;4.38;1.02;;;26.70;99.90;;;;;;5119866;28;20332;-62
2022/09/07 12:57:37;;;;;;;4.07;1.02;;;27.00;99.90;;;;;;5102725;28;20019;-60
2022/09/07 13:00:33;;;;;;;5.88;1.20;;;26.30;99.90;;;;;;5119765;28;20129;-60
2022/09/07 13:03:05;;;;;;;6.45;1.17;;;26.20;99.90;;;;;;5119751;28;20383;-60
2022/09/07 13:05:41;;;;;;;4.18;1.00;;;26.00;99.90;;;;;;5119626;28;20126;-60